Time;durP1;ratioP1;P1;durP2;ratioP2;P2;SDS_P1;SDS_P2;PMS_P1;PMS_P2;Temp;Humidity;BMP_temperature;BMP_pressure;BME280_temperature;BME280_humidity;BME280_pressure;Samples;Min_cycle;Max_cycle;Signal;HPM_P1;HPM_P2
2022/12/19 00:00:49;;;;;;;55.27;16.10;;;-1.60;99.90;;;-4.14;100.00;102435.84;10570307;27;20133;-78
2022/12/19 00:05:52;;;;;;;70.67;17.40;;;-1.50;99.90;;;-4.09;100.00;102446.13;10536328;28;20056;-78
2022/12/19 00:10:59;;;;;;;53.27;16.43;;;-1.50;99.90;;;-4.07;100.00;102442.66;10560527;28;20064;-76
2022/12/19 00:16:06;;;;;;;56.20;15.20;;;-1.50;99.90;;;-4.01;100.00;102444.31;10559602;28;20135;-77
2022/12/19 00:21:18;;;;;;;60.50;17.10;;;-1.40;99.90;;;-3.98;100.00;102435.63;10542940;28;20067;-76
2022/12/19 00:26:28;;;;;;;70.27;16.13;;;-1.40;99.90;;;-3.95;100.00;102438.19;10564435;28;20067;-76
2022/12/19 00:31:34;;;;;;;51.93;16.90;;;-1.30;99.90;;;-3.94;100.00;102443.34;10546549;28;20060;-76
2022/12/19 00:36:37;;;;;;;58.73;17.37;;;-1.30;99.90;;;-3.96;100.00;102434.69;10558694;28;20049;-77
2022/12/19 00:41:41;;;;;;;69.27;17.13;;;-1.30;99.90;;;-3.96;100.00;102433.84;10563913;27;20064;-77
2022/12/19 00:46:44;;;;;;;71.37;18.03;;;-1.30;99.90;;;-3.97;100.00;102437.31;10573326;28;20076;-76
2022/12/19 00:51:56;;;;;;;69.23;18.20;;;-1.40;99.90;;;-3.98;100.00;102433.88;10565707;28;20496;-76
2022/12/19 00:56:59;;;;;;;59.93;16.13;;;-1.40;99.90;;;-3.98;100.00;102428.69;10563481;28;20056;-76
2022/12/19 01:02:02;;;;;;;66.50;17.90;;;-1.40;99.90;;;-4.03;100.00;102423.53;10583697;28;20070;-77
2022/12/19 01:07:07;;;;;;;61.17;15.47;;;-1.40;99.90;;;-4.06;100.00;102426.19;10563049;28;20064;-76
2022/12/19 01:17:36;;;;;;;53.40;15.68;;;-1.50;99.90;;;-4.11;100.00;102422.78;10579455;28;20570;-78
2022/12/19 01:22:46;;;;;;;57.30;16.63;;;-1.50;99.90;;;-4.08;100.00;102414.09;10543582;28;20063;-76
2022/12/19 01:27:54;;;;;;;53.43;15.83;;;-1.50;99.90;;;-4.04;100.00;102408.00;10540495;28;20416;-76
2022/12/19 01:32:58;;;;;;;53.30;14.73;;;-1.50;99.90;;;-3.98;100.00;102397.50;10563477;28;20059;-76
2022/12/19 01:38:01;;;;;;;53.57;14.67;;;-1.40;99.90;;;-3.89;100.00;102389.59;10529559;28;20063;-76
2022/12/19 01:43:14;;;;;;;57.53;13.83;;;-1.30;99.90;;;-3.85;100.00;102380.88;10570216;28;20068;-76
2022/12/19 01:48:34;;;;;;;53.57;14.67;;;-1.30;99.90;;;-3.79;100.00;102377.31;10556808;28;20123;-77
2022/12/19 01:53:47;;;;;;;68.90;17.10;;;-1.20;99.90;;;-3.78;100.00;102377.31;10579678;28;20067;-76
2022/12/19 01:58:54;;;;;;;56.20;16.30;;;-1.20;99.90;;;-3.73;100.00;102381.56;10548051;28;20060;-76
2022/12/19 02:04:08;;;;;;;56.47;15.97;;;-1.10;99.90;;;-3.67;100.00;102378.88;10566605;28;20063;-76
2022/12/19 02:09:12;;;;;;;55.70;15.63;;;-1.10;99.90;;;-3.72;100.00;102373.75;10583920;28;20155;-76
2022/12/19 02:14:15;;;;;;;62.50;18.77;;;-1.10;99.90;;;-3.71;100.00;102372.88;10540290;28;20810;-76
2022/12/19 02:19:43;;;;;;;73.17;18.23;;;-1.10;99.90;;;-3.69;100.00;102371.09;10552452;28;20065;-76
2022/12/19 02:25:01;;;;;;;59.77;13.17;;;-1.10;99.90;;;-3.62;100.00;102384.88;10542582;28;20165;-76
2022/12/19 02:30:17;;;;;;;72.70;15.37;;;-1.00;99.90;;;-3.57;100.00;102390.84;10533195;28;20129;-76
2022/12/19 02:35:36;;;;;;;65.20;14.77;;;-1.00;99.90;;;-3.51;100.00;102388.16;10545232;28;20126;-76
2022/12/19 02:41:12;;;;;;;62.80;14.43;;;-0.90;99.90;;;-3.46;100.00;102382.88;10535594;28;20052;-76
2022/12/19 02:46:17;;;;;;;69.63;18.10;;;-0.90;99.90;;;-3.47;100.00;102392.44;10550035;28;20067;-76
2022/12/19 02:51:20;;;;;;;51.27;15.97;;;-0.90;99.90;;;-3.47;100.00;102401.97;10560751;28;20060;-76
2022/12/19 02:56:32;;;;;;;61.70;18.10;;;-0.90;99.90;;;-3.44;100.00;102396.72;10554205;28;20074;-76
2022/12/19 03:02:03;;;;;;;69.72;19.70;;;-0.90;99.90;;;-3.47;100.00;102392.44;10537652;28;20057;-76
2022/12/19 03:07:46;;;;;;;60.05;18.40;;;-0.90;99.90;;;-3.51;100.00;102391.59;10566458;28;20584;-76
2022/12/19 03:12:56;;;;;;;66.23;16.67;;;-0.90;99.90;;;-3.55;100.00;102384.72;10545391;28;20063;-77
2022/12/19 03:18:00;;;;;;;72.70;16.87;;;-1.00;99.90;;;-3.55;100.00;102368.28;10516856;28;20411;-76
2022/12/19 03:23:04;;;;;;;70.03;15.63;;;-1.00;99.90;;;-3.49;100.00;102365.59;10542894;28;20061;-77
2022/12/19 03:28:15;;;;;;;74.50;17.87;;;-0.90;99.90;;;-3.47;100.00;102343.03;10530516;28;20063;-77
2022/12/19 03:33:21;;;;;;;64.30;16.40;;;-0.90;99.90;;;-3.42;100.00;102348.13;10559574;28;20063;-78
2022/12/19 03:38:25;;;;;;;73.50;19.07;;;-0.80;99.90;;;-3.40;100.00;102351.59;10548420;28;20071;-77
2022/12/19 03:43:29;;;;;;;66.27;17.70;;;-0.80;99.90;;;-3.35;100.00;102344.56;10584724;28;20467;-76
2022/12/19 03:48:51;;;;;;;60.07;16.10;;;-0.80;99.90;;;-3.31;100.00;102356.63;10570343;28;20091;-76
2022/12/19 03:53:59;;;;;;;53.10;14.90;;;-0.70;99.90;;;-3.27;100.00;102363.50;10534883;28;20052;-76
2022/12/19 03:59:48;;;;;;;57.13;14.90;;;-0.70;99.90;;;-3.27;100.00;102358.28;10541733;28;20061;-77
2022/12/19 04:04:57;;;;;;;73.30;18.30;;;-0.70;99.90;;;-3.22;100.00;102360.81;10422398;28;20759;-77
2022/12/19 04:10:09;;;;;;;73.20;14.97;;;-0.70;99.90;;;-3.18;100.00;102365.91;10555945;28;20525;-77
2022/12/19 04:15:12;;;;;;;74.82;15.30;;;-0.60;99.90;;;-3.17;100.00;102343.41;10552608;28;20060;-77
2022/12/19 04:20:24;;;;;;;74.87;15.07;;;-0.60;99.90;;;-3.13;100.00;102364.09;10535399;28;20067;-77
2022/12/19 04:25:44;;;;;;;56.63;13.77;;;-0.50;99.90;;;-3.11;100.00;102357.13;10551945;28;20057;-77
2022/12/19 04:30:48;;;;;;;81.03;16.33;;;-0.50;99.90;;;-3.12;100.00;102368.44;10527683;28;20057;-77
2022/12/19 04:35:51;;;;;;;69.80;15.63;;;-0.50;99.90;;;-3.11;100.00;102371.91;10562145;28;20362;-78
2022/12/19 04:40:55;;;;;;;87.50;17.60;;;-0.50;99.90;;;-3.10;100.00;102371.84;10567466;28;20087;-77
2022/12/19 04:45:58;;;;;;;79.80;20.27;;;-0.50;99.90;;;-3.06;100.00;102363.13;10548337;28;20143;-77
2022/12/19 04:51:03;;;;;;;73.97;16.97;;;-0.50;99.90;;;-3.06;100.00;102363.13;10569869;28;20063;-76
2022/12/19 04:56:06;;;;;;;65.97;17.33;;;-0.50;99.90;;;-3.04;100.00;102366.53;10530652;28;20415;-76
2022/12/19 05:01:09;;;;;;;60.93;16.73;;;-0.50;99.90;;;-3.04;100.00;102366.53;10553395;28;20056;-76
2022/12/19 05:06:14;;;;;;;66.93;15.97;;;-0.50;99.90;;;-3.01;100.00;102361.25;10553272;28;20055;-76
2022/12/19 05:11:17;;;;;;;73.93;16.07;;;-0.40;99.90;;;-3.01;100.00;102360.41;10560214;28;20579;-77
2022/12/19 05:16:21;;;;;;;70.53;15.73;;;-0.40;99.90;;;-2.99;100.00;102371.66;10553973;28;20067;-77
2022/12/19 05:21:24;;;;;;;59.03;13.83;;;-0.40;99.90;;;-2.98;100.00;102356.03;10525972;28;20096;-77
2022/12/19 05:26:27;;;;;;;62.30;16.10;;;-0.50;99.90;;;-3.00;100.00;102357.81;10576906;28;20068;-77
2022/12/19 05:31:30;;;;;;;54.73;14.83;;;-0.50;99.90;;;-2.96;100.00;102343.84;10557192;28;20146;-77
2022/12/19 05:36:33;;;;;;;59.07;14.67;;;-0.40;99.90;;;-2.94;100.00;102351.59;10546736;28;20058;-76
2022/12/19 05:41:36;;;;;;;74.20;16.73;;;-0.40;99.90;;;-2.93;100.00;102352.50;10543377;28;20067;-76
2022/12/19 05:46:40;;;;;;;80.87;16.13;;;-0.30;99.90;;;-2.91;100.00;102348.97;10545211;28;20068;-76
2022/12/19 05:51:47;;;;;;;60.97;15.13;;;-0.30;99.90;;;-2.92;100.00;102355.06;10550832;28;20507;-76
2022/12/19 05:56:50;;;;;;;67.60;16.27;;;-0.30;99.90;;;-2.90;100.00;102352.41;10544866;28;20056;-76
2022/12/19 06:01:53;;;;;;;54.00;16.47;;;-0.30;99.90;;;-2.89;100.00;102352.38;10551940;28;20094;-77
2022/12/19 06:06:56;;;;;;;65.57;15.77;;;-0.30;99.90;;;-2.85;100.00;102347.97;10533750;28;20117;-76
2022/12/19 06:11:59;;;;;;;69.03;17.30;;;-0.30;99.90;;;-2.85;100.00;102366.19;10535620;28;20060;-79
2022/12/19 06:17:02;;;;;;;71.13;16.93;;;-0.30;99.90;;;-2.83;100.00;102361.81;10557412;28;20052;-76
2022/12/19 06:22:05;;;;;;;70.40;17.87;;;-0.30;99.90;;;-2.83;100.00;102360.06;10570952;28;20063;-76
2022/12/19 06:27:08;;;;;;;59.37;16.43;;;-0.30;99.90;;;-2.80;100.00;102365.22;10528551;28;20459;-76
2022/12/19 06:32:11;;;;;;;69.90;17.20;;;-0.20;99.90;;;-2.77;100.00;102365.16;10526490;28;20571;-76
2022/12/19 06:37:14;;;;;;;49.77;15.13;;;-0.20;99.90;;;-2.73;100.00;102363.34;10558571;28;20059;-76
2022/12/19 06:42:23;;;;;;;66.37;18.90;;;-0.20;99.90;;;-2.71;100.00;102366.78;10560376;27;20420;-79
2022/12/19 06:47:27;;;;;;;48.47;18.17;;;-0.10;99.90;;;-2.65;100.00;102378.81;10546175;28;20060;-80
2022/12/19 06:52:30;;;;;;;52.80;17.57;;;0.00;99.90;;;-2.61;100.00;102368.31;10513385;28;20057;-79
2022/12/19 06:57:33;;;;;;;60.77;18.43;;;0.00;99.90;;;-2.58;100.00;102370.88;10557553;28;20079;-82
2022/12/19 07:02:36;;;;;;;67.90;21.73;;;0.10;99.90;;;-2.56;100.00;102381.25;10547814;28;20218;-87
2022/12/19 07:07:40;;;;;;;87.93;27.83;;;0.00;99.90;;;-2.54;100.00;102380.31;10524859;28;20407;-79
2022/12/19 07:12:44;;;;;;;90.43;30.70;;;0.10;99.90;;;-2.51;100.00;102385.47;10553868;28;20060;-80
2022/12/19 07:17:47;;;;;;;85.77;31.23;;;0.10;99.90;;;-2.52;100.00;102383.78;10538290;28;20085;-79
2022/12/19 07:22:50;;;;;;;79.20;27.60;;;0.10;99.90;;;-2.48;100.00;102380.19;10534485;28;20060;-80
2022/12/19 07:27:54;;;;;;;76.20;22.90;;;0.10;99.90;;;-2.47;100.00;102381.91;10560254;28;20060;-79
2022/12/19 07:32:57;;;;;;;79.53;21.80;;;0.20;99.90;;;-2.43;100.00;102387.91;10551967;27;20056;-81
2022/12/19 07:38:05;;;;;;;70.50;22.73;;;0.10;99.90;;;-2.41;100.00;102378.31;10570003;28;20056;-81
2022/12/19 07:43:08;;;;;;;83.57;24.30;;;0.20;99.90;;;-2.38;100.00;102372.22;10561638;28;20634;-79
2022/12/19 07:48:11;;;;;;;78.40;27.00;;;0.20;99.90;;;-2.32;100.00;102378.13;10549761;28;20056;-80
2022/12/19 07:53:15;;;;;;;77.07;21.83;;;0.30;99.90;;;-2.28;100.00;102387.63;10540943;28;20060;-80
2022/12/19 07:58:18;;;;;;;50.90;18.77;;;0.30;99.90;;;-2.24;100.00;102398.81;10538627;28;20102;-79
2022/12/19 08:03:23;;;;;;;62.97;18.93;;;0.40;99.90;;;-2.21;100.00;102406.56;10546763;28;20526;-80
2022/12/19 08:08:27;;;;;;;52.37;17.80;;;0.30;99.90;;;-2.18;100.00;102409.94;10545540;28;20064;-80
2022/12/19 08:13:30;;;;;;;56.93;19.33;;;0.40;99.90;;;-2.16;100.00;102420.31;10562929;28;20049;-80
2022/12/19 08:18:42;;;;;;;36.30;14.75;;;0.40;99.90;;;-2.18;100.00;102414.31;10569842;28;20048;-82
2022/12/19 08:23:45;;;;;;;43.73;16.37;;;0.40;99.90;;;-2.13;100.00;102415.06;10546913;28;20090;-82
2022/12/19 08:28:48;;;;;;;51.90;17.97;;;0.40;99.90;;;-2.12;100.00;102427.19;10568185;28;20088;-82
2022/12/19 08:33:53;;;;;;;41.10;15.07;;;0.40;99.90;;;-2.13;100.00;102414.22;10533490;28;20060;-82
2022/12/19 08:38:57;;;;;;;43.30;15.53;;;0.40;99.90;;;-2.11;100.00;102396.78;10544253;28;20064;-82
2022/12/19 08:44:02;;;;;;;40.63;16.40;;;0.40;99.90;;;-2.00;100.00;102400.88;10548838;28;20056;-79
2022/12/19 08:49:05;;;;;;;42.43;14.73;;;0.50;99.90;;;-1.86;100.00;102395.34;10525215;28;20065;-82
2022/12/19 08:54:08;;;;;;;35.20;12.73;;;0.60;99.90;;;-1.70;100.00;102401.09;10551334;28;20146;-79
2022/12/19 08:59:14;;;;;;;38.60;14.90;;;0.80;99.90;;;-1.57;100.00;102393.81;10564403;28;20060;-79
2022/12/19 09:04:33;;;;;;;32.57;12.57;;;0.90;99.90;;;-1.45;100.00;102393.53;10560449;28;20060;-82
2022/12/19 09:09:55;;;;;;;35.70;12.60;;;1.10;99.90;;;-1.33;100.00;102387.16;10558128;28;20064;-80
2022/12/19 09:14:59;;;;;;;29.83;12.63;;;1.20;99.90;;;-1.21;100.00;102384.25;10561839;28;20056;-80
2022/12/19 09:20:02;;;;;;;31.13;11.60;;;1.30;99.90;;;-1.15;100.00;102399.72;10556577;28;20084;-80
2022/12/19 09:25:06;;;;;;;34.20;13.47;;;1.40;99.90;;;-1.21;100.00;102403.34;10534489;28;20411;-81
2022/12/19 09:30:11;;;;;;;32.80;12.30;;;1.40;99.90;;;-1.24;100.00;102398.22;10559034;28;20067;-81
2022/12/19 09:35:14;;;;;;;31.77;13.30;;;1.40;99.90;;;-1.30;100.00;102402.75;10550035;28;20512;-81
2022/12/19 09:40:17;;;;;;;29.70;13.00;;;1.30;99.90;;;-1.29;100.00;102387.03;10554960;28;20093;-81
2022/12/19 09:45:52;;;;;;;31.67;12.87;;;1.30;99.90;;;-1.17;100.00;102373.69;10525965;28;20066;-81
2022/12/19 09:51:29;;;;;;;34.57;11.93;;;1.40;99.90;;;-1.01;100.00;102374.16;10554779;28;20492;-83
2022/12/19 09:56:38;;;;;;;30.60;11.63;;;1.60;99.90;;;-0.92;98.79;102360.84;10562863;28;20124;-80
2022/12/19 10:02:19;;;;;;;27.23;11.03;;;1.70;99.90;;;-0.90;98.08;102346.03;10544829;28;20432;-83
2022/12/19 10:07:22;;;;;;;29.23;12.17;;;1.80;99.90;;;-0.90;97.29;102348.63;10532391;28;20150;-80
2022/12/19 10:13:16;;;;;;;33.30;13.23;;;1.80;99.90;;;-0.92;96.24;102342.56;10542343;28;20057;-81
2022/12/19 10:18:42;;;;;;;35.33;14.33;;;1.70;99.90;;;-0.86;95.73;102346.78;10551756;28;20057;-80
2022/12/19 10:24:18;;;;;;;28.43;11.77;;;1.80;99.90;;;-0.79;95.13;102342.25;10546504;28;20068;-81
2022/12/19 10:29:49;;;;;;;29.17;11.13;;;1.80;99.90;;;-0.66;94.18;102322.72;10558411;28;20063;-81
2022/12/19 10:34:53;;;;;;;28.83;12.23;;;2.00;99.90;;;-0.55;93.78;102323.25;10565030;28;20062;-81
2022/12/19 10:40:10;;;;;;;32.23;11.87;;;2.10;99.90;;;-0.51;91.23;102311.84;10547557;28;20149;-81
2022/12/19 10:45:43;;;;;;;33.00;12.07;;;2.30;99.90;;;-0.46;90.29;102317.78;10560035;28;20499;-81
2022/12/19 10:50:49;;;;;;;25.63;10.43;;;2.30;99.90;;;-0.42;89.82;102316.78;10515033;28;20106;-81
2022/12/19 10:55:54;;;;;;;33.17;12.27;;;2.30;99.90;;;-0.50;89.32;102320.53;10537132;28;20063;-81
2022/12/19 11:01:01;;;;;;;39.47;16.07;;;2.20;99.90;;;-0.50;88.78;102295.25;10575490;28;20067;-81
2022/12/19 11:06:05;;;;;;;28.43;11.53;;;2.20;99.90;;;-0.44;89.05;102300.28;10550444;28;21540;-81
2022/12/19 11:11:12;;;;;;;37.40;14.13;;;2.30;99.90;;;-0.44;87.81;102299.44;10572178;27;20059;-81
2022/12/19 11:16:37;;;;;;;33.73;12.83;;;2.30;99.90;;;-0.43;87.99;102308.97;10562828;28;20106;-83
2022/12/19 11:22:26;;;;;;;38.60;16.27;;;2.20;99.90;;;-0.34;87.61;102291.28;10542959;28;20064;-83
2022/12/19 11:27:50;;;;;;;31.30;13.30;;;2.40;99.90;;;-0.33;87.13;102287.75;10567535;28;20494;-82
2022/12/19 11:33:17;;;;;;;29.10;13.10;;;2.40;99.90;;;-0.36;86.23;102280.03;10558334;27;20067;-83
2022/12/19 11:38:32;;;;;;;38.73;13.77;;;2.40;99.90;;;-0.35;86.36;102266.06;10532353;28;20060;-83
2022/12/19 11:44:02;;;;;;;106.13;32.27;;;2.40;99.90;;;-0.33;85.84;102247.72;10571617;28;20446;-84
2022/12/19 11:49:16;;;;;;;49.70;18.80;;;2.40;99.90;;;-0.32;85.33;102252.91;10550845;28;20129;-84
2022/12/19 11:54:41;;;;;;;34.53;14.27;;;2.40;99.90;;;-0.41;85.22;102241.91;10548116;28;20056;-83
2022/12/19 11:59:45;;;;;;;41.53;15.23;;;2.30;99.90;;;-0.44;84.94;102245.44;10572527;28;20059;-83
2022/12/19 12:05:10;;;;;;;33.33;13.57;;;2.20;99.90;;;-0.50;84.56;102234.34;10542496;28;20056;-82
2022/12/19 12:10:19;;;;;;;33.93;13.80;;;2.20;99.90;;;-0.56;85.10;102230.16;10550198;28;20056;-84
2022/12/19 12:16:00;;;;;;;31.57;12.83;;;2.00;99.90;;;-0.64;84.76;102225.16;10545854;28;20056;-83
2022/12/19 12:21:41;;;;;;;33.63;14.93;;;2.00;99.90;;;-0.68;84.73;102217.47;10558734;28;20056;-83
2022/12/19 12:27:29;;;;;;;32.90;13.40;;;1.90;99.90;;;-0.70;84.89;102232.34;10561116;27;20060;-83
2022/12/19 12:33:14;;;;;;;38.87;14.27;;;1.80;99.90;;;-0.77;85.44;102220.38;10559942;28;20100;-84
2022/12/19 12:39:10;;;;;;;35.63;13.73;;;1.80;99.90;;;-0.78;85.76;102221.25;10574067;28;20083;-83
2022/12/19 12:44:19;;;;;;;;;;;1.80;99.90;;;-0.81;85.95;102230.88;10563757;27;20106;-83
2022/12/19 12:50:11;;;;;;;36.27;12.90;;;1.80;99.90;;;-0.91;86.05;102229.44;10553478;28;19928;-83
2022/12/19 12:55:31;;;;;;;34.10;14.03;;;1.70;99.90;;;-0.95;86.00;102221.78;10570703;28;20056;-83
2022/12/19 13:00:35;;;;;;;32.43;13.20;;;1.60;99.90;;;-1.00;85.90;102216.69;10567156;28;20573;-83
2022/12/19 13:06:19;;;;;;;40.07;15.17;;;1.50;99.90;;;-1.05;86.33;102199.44;10535592;28;20523;-83
2022/12/19 13:16:51;;;;;;;213.80;36.07;;;1.40;99.90;;;-1.10;86.37;102192.59;10558225;28;20091;-83
2022/12/19 13:22:04;;;;;;;232.23;40.40;;;1.40;99.90;;;-1.10;86.43;102200.41;10558658;28;20060;-83
2022/12/19 13:27:19;;;;;;;434.27;69.50;;;1.40;99.90;;;-1.14;86.33;102187.50;10557328;28;20154;-85
2022/12/19 13:32:22;;;;;;;131.43;29.23;;;1.40;99.90;;;-1.19;86.68;102192.88;10547439;27;20528;-84
2022/12/19 13:37:59;;;;;;;366.50;61.40;;;1.30;99.90;;;-1.22;86.07;102184.25;10548516;28;20056;-84
2022/12/19 13:43:47;;;;;;;285.67;46.87;;;1.30;99.90;;;-1.24;86.10;102175.63;10561561;28;20098;-84
2022/12/19 13:48:56;;;;;;;259.23;48.67;;;1.30;99.90;;;-1.29;86.36;102180.97;10556023;28;20067;-84
2022/12/19 13:53:59;;;;;;;178.37;37.90;;;1.20;99.90;;;-1.30;86.50;102183.63;10550666;28;20397;-84
2022/12/19 13:59:04;;;;;;;122.50;29.37;;;1.20;99.90;;;-1.34;86.73;102185.47;10556947;28;20503;-82
2022/12/19 14:04:27;;;;;;;1192.07;219.13;;;1.20;99.90;;;-1.37;86.54;102185.56;10558117;28;20079;-82
2022/12/19 14:09:37;;;;;;;507.07;87.83;;;1.10;99.90;;;-1.39;86.61;102180.38;10559046;28;20060;-82
2022/12/19 14:15:12;;;;;;;514.27;86.57;;;1.10;99.90;;;-1.38;87.02;102174.28;10563549;27;20064;-83
2022/12/19 14:20:24;;;;;;;84.50;25.53;;;1.10;99.90;;;-1.42;87.23;102184.84;10563158;28;20495;-82
2022/12/19 14:25:54;;;;;;;95.70;26.57;;;1.00;99.90;;;-1.49;87.10;102176.34;10553251;28;20058;-82
2022/12/19 14:31:18;;;;;;;72.93;23.73;;;1.00;99.90;;;-1.54;87.61;102175.59;10555716;28;20056;-82
2022/12/19 14:36:33;;;;;;;102.20;29.03;;;0.90;99.90;;;-1.57;87.44;102170.44;10543556;28;20102;-82
2022/12/19 14:47:32;;;;;;;88.87;25.67;;;0.80;99.90;;;-1.62;87.90;102177.53;10542731;28;20083;-83
2022/12/19 14:53:15;;;;;;;213.30;44.67;;;0.80;99.90;;;-1.67;88.15;102179.44;10544938;27;20063;-81
2022/12/19 14:58:39;;;;;;;50.13;15.75;;;0.70;99.90;;;-1.72;88.48;102173.50;10539992;28;20087;-81
2022/12/19 15:04:07;;;;;;;107.00;29.97;;;0.70;99.90;;;-1.77;88.82;102167.53;10570916;27;20084;-81
2022/12/19 15:09:41;;;;;;;29.42;10.77;;;0.60;99.90;;;-1.84;89.22;102179.03;10533397;28;20064;-79
2022/12/19 15:15:18;;;;;;;140.57;33.30;;;0.50;99.90;;;-1.93;89.22;102193.13;10542894;27;20648;-79
2022/12/19 15:20:22;;;;;;;47.87;18.03;;;0.50;99.90;;;-2.02;89.57;102189.03;10557499;28;20543;-82
2022/12/19 15:25:25;;;;;;;46.70;15.53;;;0.40;99.90;;;-2.07;89.52;102190.03;10534960;28;20060;-81
2022/12/19 15:31:00;;;;;;;40.77;16.30;;;0.30;99.90;;;-2.21;90.06;102195.59;10546549;28;20144;-82
2022/12/19 15:36:04;;;;;;;35.87;13.53;;;0.20;99.90;;;-2.26;90.10;102194.84;10540045;28;20147;-82
2022/12/19 15:41:19;;;;;;;42.23;14.93;;;0.20;99.90;;;-2.31;90.84;102196.72;10558031;28;20061;-82
2022/12/19 15:46:29;;;;;;;41.93;14.03;;;0.20;99.90;;;-2.33;91.04;102172.47;10534352;28;20065;-81
2022/12/19 15:51:32;;;;;;;40.63;14.67;;;0.20;99.90;;;-2.32;91.18;102172.41;10531702;28;20067;-82
2022/12/19 15:56:41;;;;;;;46.03;15.83;;;0.20;99.90;;;-2.34;91.72;102171.59;10562748;27;20056;-82
2022/12/19 16:01:44;;;;;;;50.53;21.33;;;0.20;99.90;;;-2.32;91.84;102174.16;10511247;28;20056;-80
2022/12/19 16:06:47;;;;;;;35.37;14.30;;;0.20;99.90;;;-2.32;92.67;102177.63;10551713;28;20099;-78
2022/12/19 16:11:52;;;;;;;41.40;14.53;;;0.20;99.90;;;-2.34;92.54;102161.19;10567227;28;20056;-81
2022/12/19 16:16:55;;;;;;;36.40;14.50;;;0.20;99.90;;;-2.37;93.14;102161.25;10555145;28;20503;-80
2022/12/19 16:21:59;;;;;;;50.50;18.27;;;0.20;99.90;;;-2.39;93.30;102164.78;10579625;28;20080;-79
2022/12/19 16:27:02;;;;;;;40.10;15.50;;;0.20;99.90;;;-2.42;93.65;102165.72;10551353;28;20064;-80
2022/12/19 16:32:10;;;;;;;53.40;21.57;;;0.10;99.90;;;-2.44;93.92;102164.91;10570872;27;20109;-80
2022/12/19 16:37:14;;;;;;;42.77;18.17;;;0.10;99.90;;;-2.44;94.11;102149.28;10556058;28;20139;-80
2022/12/19 16:42:17;;;;;;;53.53;20.07;;;0.10;99.90;;;-2.47;94.28;102147.59;10551187;28;20144;-80
2022/12/19 16:47:20;;;;;;;44.57;16.23;;;0.10;99.90;;;-2.51;94.32;102132.09;10546047;28;20484;-79
2022/12/19 16:52:23;;;;;;;43.90;16.87;;;0.10;99.90;;;-2.47;94.36;102144.13;10552621;28;20053;-81
2022/12/19 16:57:26;;;;;;;44.13;14.53;;;0.10;99.90;;;-2.48;94.37;102143.28;10536979;28;20048;-79
2022/12/19 17:02:45;;;;;;;64.77;23.00;;;0.10;99.90;;;-2.46;94.78;102157.13;10559880;27;20056;-79
2022/12/19 17:07:50;;;;;;;42.47;15.83;;;0.10;99.90;;;-2.47;94.85;102139.78;10567564;27;20065;-80
2022/12/19 17:12:55;;;;;;;56.40;19.57;;;0.10;99.90;;;-2.45;95.04;102148.44;10549768;28;20056;-80
2022/12/19 17:18:11;;;;;;;53.20;19.17;;;0.10;99.90;;;-2.45;95.39;102148.44;10536118;28;20060;-79
2022/12/19 17:23:19;;;;;;;46.33;17.77;;;0.10;99.90;;;-2.45;95.09;102156.25;10564085;28;20508;-79
2022/12/19 17:28:22;;;;;;;45.53;16.33;;;0.20;99.90;;;-2.44;95.05;102155.34;10562997;27;20135;-79
2022/12/19 17:33:35;;;;;;;41.37;16.17;;;0.20;99.90;;;-2.44;95.39;102152.72;10535515;28;20056;-79
2022/12/19 17:38:38;;;;;;;49.00;19.37;;;0.20;99.90;;;-2.42;95.12;102156.16;10559026;28;20058;-78
2022/12/19 17:43:42;;;;;;;39.93;15.03;;;0.20;99.90;;;-2.40;95.39;102163.91;10554541;28;20068;-80
2022/12/19 17:48:50;;;;;;;38.97;14.33;;;0.20;99.90;;;-2.37;95.12;102181.22;10530313;28;20151;-79
2022/12/19 17:53:52;;;;;;;41.33;14.50;;;0.20;99.90;;;-2.36;95.53;102167.31;10528772;28;20103;-78
2022/12/19 17:58:55;;;;;;;32.47;12.57;;;0.20;99.90;;;-2.36;95.63;102169.91;10545725;28;20492;-78
2022/12/19 18:03:59;;;;;;;39.37;12.57;;;0.20;99.90;;;-2.36;95.46;102162.97;10544893;28;20084;-78
2022/12/19 18:09:02;;;;;;;37.50;12.90;;;0.20;99.90;;;-2.35;95.51;102161.19;10558894;28;20143;-78
2022/12/19 18:14:05;;;;;;;35.47;13.60;;;0.30;99.90;;;-2.34;95.60;102162.91;10545190;28;20727;-78
2022/12/19 18:19:22;;;;;;;35.67;13.87;;;0.30;99.90;;;-2.33;95.56;102162.03;10531346;28;20139;-78
2022/12/19 18:24:25;;;;;;;53.47;17.40;;;0.30;99.90;;;-2.32;95.80;102164.59;10540960;28;20503;-80
2022/12/19 18:29:28;;;;;;;44.00;15.00;;;0.30;99.90;;;-2.32;95.50;102154.19;10555900;28;20059;-78
2022/12/19 18:34:34;;;;;;;45.63;16.93;;;0.30;99.90;;;-2.30;96.12;102160.19;10539075;28;20060;-78
2022/12/19 18:39:37;;;;;;;43.17;16.50;;;0.30;99.90;;;-2.27;96.09;102133.25;10559897;28;20526;-78
2022/12/19 18:44:40;;;;;;;44.07;15.97;;;0.40;99.90;;;-2.26;95.91;102124.53;10552122;28;20503;-78
2022/12/19 18:49:43;;;;;;;43.30;18.47;;;0.40;99.90;;;-2.26;96.05;102107.16;10541716;28;20056;-78
2022/12/19 18:54:46;;;;;;;47.00;17.83;;;0.40;99.90;;;-2.27;96.17;102091.56;10524324;28;20060;-77
2022/12/19 18:59:49;;;;;;;37.83;14.77;;;0.40;99.90;;;-2.30;95.79;102097.69;10517685;28;20067;-78
2022/12/19 19:04:54;;;;;;;31.87;13.13;;;0.30;99.90;;;-2.32;95.84;102104.72;10534032;28;20110;-78
2022/12/19 19:09:58;;;;;;;47.23;18.20;;;0.30;99.90;;;-2.32;95.88;102101.25;10533391;28;20061;-77
2022/12/19 19:15:01;;;;;;;38.43;15.60;;;0.30;99.90;;;-2.31;95.77;102102.97;10532827;28;20180;-77
2022/12/19 19:20:05;;;;;;;44.23;17.33;;;0.30;99.90;;;-2.30;95.54;102099.44;10566667;28;20508;-77
2022/12/19 19:25:11;;;;;;;49.40;18.13;;;0.30;99.90;;;-2.30;95.99;102089.88;10547359;28;20516;-77
2022/12/19 19:30:14;;;;;;;38.03;15.20;;;0.30;99.90;;;-2.27;95.74;102089.81;10545759;27;20585;-77
2022/12/19 19:35:20;;;;;;;39.53;13.93;;;0.40;99.90;;;-2.29;95.96;102091.59;10555834;28;20056;-77
2022/12/19 19:40:23;;;;;;;36.47;14.33;;;0.40;99.90;;;-2.29;95.74;102086.38;10551938;28;20056;-77
2022/12/19 19:45:26;;;;;;;34.73;13.97;;;0.30;99.90;;;-2.28;95.54;102077.72;10549967;28;20151;-77
2022/12/19 19:50:31;;;;;;;37.20;14.27;;;0.30;99.90;;;-2.29;95.81;102077.72;10564977;28;20057;-77
2022/12/19 19:55:34;;;;;;;35.27;13.27;;;0.30;99.90;;;-2.32;95.43;102075.22;10542927;28;20060;-77
2022/12/19 20:00:37;;;;;;;35.50;13.83;;;0.30;99.90;;;-2.32;95.56;102083.03;10571207;28;20063;-77
2022/12/19 20:05:40;;;;;;;35.13;14.40;;;0.30;99.90;;;-2.34;95.71;102083.06;10560284;28;20056;-77
2022/12/19 20:10:43;;;;;;;34.83;12.10;;;0.20;99.90;;;-2.38;95.70;102076.22;10565654;28;20408;-77
2022/12/19 20:15:46;;;;;;;32.80;11.93;;;0.20;99.90;;;-2.39;96.12;102089.28;10535956;28;20056;-77
2022/12/19 20:20:51;;;;;;;32.60;12.53;;;0.20;99.90;;;-2.39;95.97;102099.69;10551439;28;20299;-78
2022/12/19 20:26:00;;;;;;;30.63;12.53;;;0.20;99.90;;;-2.41;95.99;102081.50;10546295;28;20115;-78
2022/12/19 20:31:04;;;;;;;38.50;12.77;;;0.10;99.90;;;-2.39;96.33;102079.72;10549552;28;20106;-79
2022/12/19 20:36:10;;;;;;;37.53;13.40;;;0.20;99.90;;;-2.39;96.05;102076.28;10563298;28;20153;-78
2022/12/19 20:41:15;;;;;;;35.07;14.57;;;0.20;99.90;;;-2.39;96.17;102078.88;10561027;28;20059;-79
2022/12/19 20:46:20;;;;;;;48.87;17.43;;;0.20;99.90;;;-2.41;96.54;102076.28;10537302;28;20122;-80
2022/12/19 20:51:23;;;;;;;36.47;14.03;;;0.20;99.90;;;-2.39;96.36;102079.72;10532385;28;20052;-80
2022/12/19 20:56:27;;;;;;;47.77;17.90;;;0.20;99.90;;;-2.40;96.77;102067.56;10545967;28;20064;-80
2022/12/19 21:01:30;;;;;;;42.17;15.47;;;0.20;99.90;;;-2.38;96.72;102070.16;10540648;28;20060;-80
2022/12/19 21:06:36;;;;;;;48.03;16.67;;;0.20;99.90;;;-2.41;96.93;102073.69;10554350;28;20151;-80
2022/12/19 21:11:39;;;;;;;48.40;15.37;;;0.20;99.90;;;-2.39;96.68;102061.50;10544601;28;20063;-80